createdAt,value
2023-06-11T00:00:46.274Z,451.40
2023-06-11T00:01:46.246Z,463.60
2023-06-11T00:02:46.313Z,464.80
2023-06-11T00:03:46.404Z,459.90
2023-06-11T00:04:46.402Z,454.00
2023-06-11T00:05:46.222Z,434.60
2023-06-11T00:06:46.190Z,388.30
2023-06-11T00:07:46.192Z,419.70
2023-06-11T00:08:46.168Z,435.40
2023-06-11T00:09:46.195Z,421.70
2023-06-11T00:10:46.147Z,442.20
2023-06-11T00:11:46.118Z,450.30
2023-06-11T00:12:46.120Z,460.90
2023-06-11T00:13:46.128Z,476.90
2023-06-11T00:14:46.139Z,478.90
2023-06-11T00:15:46.115Z,477.80
2023-06-11T00:16:46.150Z,487.30
2023-06-11T00:17:46.129Z,491.00
2023-06-11T00:18:46.108Z,493.70
2023-06-11T00:19:46.038Z,493.60
2023-06-11T00:20:46.038Z,503.60
2023-06-11T00:21:46.031Z,514.90
2023-06-11T00:22:46.001Z,511.40
2023-06-11T00:23:46.064Z,542.80
2023-06-11T00:24:46.003Z,550.90
2023-06-11T00:25:47.341Z,576.00
2023-06-11T00:26:45.968Z,596.70
2023-06-11T00:27:45.951Z,623.00
2023-06-11T00:28:45.966Z,633.10
2023-06-11T00:29:45.920Z,664.50
2023-06-11T00:30:45.917Z,675.00
2023-06-11T00:31:45.950Z,684.50
2023-06-11T00:32:45.931Z,689.60
2023-06-11T00:33:45.899Z,684.70
2023-06-11T00:34:45.873Z,666.90
2023-06-11T00:35:45.852Z,664.50
2023-06-11T00:36:45.849Z,633.30
2023-06-11T00:37:45.863Z,591.80
2023-06-11T00:38:45.835Z,574.50
2023-06-11T00:39:45.796Z,561.00
2023-06-11T00:40:45.788Z,559.90
2023-06-11T00:41:45.800Z,602.50
2023-06-11T00:42:45.838Z,596.30
2023-06-11T00:43:45.781Z,578.50
2023-06-11T00:44:45.765Z,560.10
2023-06-11T00:45:45.794Z,538.70
2023-06-11T00:46:45.747Z,483.90
2023-06-11T00:47:45.821Z,485.80
2023-06-11T00:48:45.718Z,474.10
2023-06-11T00:49:45.710Z,464.00
2023-06-11T00:50:45.675Z,454.80
2023-06-11T00:51:45.681Z,446.40
2023-06-11T00:52:45.692Z,435.70
2023-06-11T00:53:45.654Z,442.90
2023-06-11T00:54:45.647Z,449.60
2023-06-11T00:55:45.611Z,455.10
2023-06-11T00:56:45.641Z,447.20
2023-06-11T00:57:45.596Z,464.50
2023-06-11T00:58:45.647Z,482.60
2023-06-11T00:59:45.696Z,481.30
2023-06-11T01:00:45.594Z,598.80
2023-06-11T01:01:45.590Z,623.40
2023-06-11T01:02:45.596Z,562.30
2023-06-11T01:03:45.549Z,504.50
2023-06-11T01:04:45.614Z,761.50
2023-06-11T01:05:45.635Z,778.80
2023-06-11T01:06:45.525Z,767.90
2023-06-11T01:07:45.473Z,528.10
2023-06-11T01:08:45.468Z,517.70
2023-06-11T01:09:45.463Z,557.10
2023-06-11T01:10:45.501Z,537.50
2023-06-11T01:11:45.462Z,554.80
2023-06-11T01:12:47.760Z,557.20
2023-06-11T01:13:45.407Z,611.40
2023-06-11T01:14:45.425Z,538.00
2023-06-11T01:15:45.442Z,516.10
2023-06-11T01:16:45.389Z,513.80
2023-06-11T01:17:45.439Z,497.90
2023-06-11T01:18:45.370Z,577.60
2023-06-11T01:19:45.352Z,663.80
2023-06-11T01:20:45.379Z,679.20
2023-06-11T01:21:45.333Z,677.50
2023-06-11T01:22:45.310Z,677.20
2023-06-11T01:23:45.302Z,653.60
2023-06-11T01:24:45.301Z,666.00
2023-06-11T01:25:45.315Z,561.00
2023-06-11T01:26:45.288Z,501.60
2023-06-11T01:27:45.267Z,532.50
2023-06-11T01:28:45.247Z,571.00
2023-06-11T01:29:45.276Z,575.10
2023-06-11T01:30:45.219Z,532.70
2023-06-11T01:31:45.365Z,575.20
2023-06-11T01:32:45.200Z,600.80
2023-06-11T01:33:45.172Z,609.90
2023-06-11T01:34:45.219Z,583.60
2023-06-11T01:35:45.155Z,571.60
2023-06-11T01:36:45.159Z,638.10
2023-06-11T01:37:45.138Z,608.70
2023-06-11T01:38:45.112Z,626.70
2023-06-11T01:39:45.151Z,644.40
2023-06-11T01:40:45.109Z,606.70
2023-06-11T01:41:45.081Z,608.20
2023-06-11T01:42:45.080Z,605.80
2023-06-11T01:43:45.101Z,585.20
2023-06-11T01:44:45.089Z,560.40
2023-06-11T01:45:45.050Z,597.50
2023-06-11T01:46:45.074Z,536.30
2023-06-11T01:47:45.072Z,541.90
2023-06-11T01:48:45.031Z,483.60
2023-06-11T01:49:45.054Z,486.30
2023-06-11T01:50:44.993Z,476.70
2023-06-11T01:51:44.967Z,479.20
2023-06-11T01:52:44.957Z,511.00
2023-06-11T01:53:44.989Z,456.80
2023-06-11T01:54:44.950Z,518.60
2023-06-11T01:55:44.910Z,522.10
2023-06-11T01:56:44.917Z,537.10
2023-06-11T01:57:44.941Z,527.30
2023-06-11T01:58:44.928Z,554.50
2023-06-11T01:59:44.901Z,591.80
2023-06-11T02:00:44.876Z,577.00
2023-06-11T02:01:44.900Z,551.90
2023-06-11T02:02:45.008Z,579.20
2023-06-11T02:03:44.911Z,575.80
2023-06-11T02:04:44.825Z,564.60
2023-06-11T02:05:44.819Z,599.10
2023-06-11T02:06:44.858Z,617.40
2023-06-11T02:07:44.879Z,634.40
2023-06-11T02:08:44.775Z,655.10
2023-06-11T02:09:44.757Z,715.80
2023-06-11T02:10:44.785Z,703.60
2023-06-11T02:11:44.761Z,688.30
2023-06-11T02:12:44.767Z,704.60
2023-06-11T02:13:44.735Z,706.00
2023-06-11T02:14:44.705Z,716.60
2023-06-11T02:15:44.699Z,696.30
2023-06-11T02:16:44.726Z,718.60
2023-06-11T02:17:44.683Z,754.80
2023-06-11T02:18:44.675Z,716.90
2023-06-11T02:19:44.688Z,749.40
2023-06-11T02:20:44.655Z,740.40
2023-06-11T02:21:44.665Z,746.00
2023-06-11T02:22:44.655Z,759.30
2023-06-11T02:23:44.653Z,766.80
2023-06-11T02:24:44.662Z,799.40
2023-06-11T02:25:44.593Z,788.00
2023-06-11T02:26:44.608Z,782.20
2023-06-11T02:27:44.588Z,811.60
2023-06-11T02:28:44.550Z,808.80
2023-06-11T02:29:44.550Z,788.80
2023-06-11T02:30:44.573Z,794.70
2023-06-11T02:31:44.620Z,783.90
2023-06-11T02:32:44.581Z,765.30
2023-06-11T02:33:44.494Z,701.40
2023-06-11T02:34:44.496Z,671.50
2023-06-11T02:35:44.527Z,631.50
2023-06-11T02:36:44.447Z,600.50
2023-06-11T02:37:44.446Z,536.60
2023-06-11T02:38:44.479Z,487.40
2023-06-11T02:39:44.447Z,495.40
2023-06-11T02:40:44.450Z,519.90
2023-06-11T02:41:44.420Z,603.90
2023-06-11T02:42:44.408Z,660.40
2023-06-11T02:43:44.401Z,719.00
2023-06-11T02:44:44.419Z,769.30
2023-06-11T02:45:44.453Z,727.30
2023-06-11T02:46:44.393Z,721.70
2023-06-11T02:47:44.360Z,677.50
2023-06-11T02:48:44.327Z,630.30
2023-06-11T02:49:44.356Z,638.40
2023-06-11T02:50:44.309Z,664.10
2023-06-11T02:51:44.288Z,661.10
2023-06-11T02:52:44.264Z,707.40
2023-06-11T02:53:44.254Z,713.20
2023-06-11T02:54:44.269Z,712.90
2023-06-11T02:55:44.243Z,770.10
2023-06-11T02:56:44.262Z,785.80
2023-06-11T02:57:44.238Z,888.40
2023-06-11T02:58:44.257Z,948.80
2023-06-11T02:59:44.242Z,944.70
2023-06-11T03:00:44.220Z,952.70
2023-06-11T03:01:44.186Z,946.70
2023-06-11T03:02:44.232Z,932.00
2023-06-11T03:03:44.248Z,914.40
2023-06-11T03:04:44.149Z,929.80
2023-06-11T03:05:44.130Z,879.60
2023-06-11T03:06:44.107Z,851.30
2023-06-11T03:07:44.109Z,848.90
2023-06-11T03:08:44.134Z,854.30
2023-06-11T03:09:44.091Z,852.10
2023-06-11T03:10:44.074Z,845.00
2023-06-11T03:11:44.078Z,770.00
2023-06-11T03:12:44.050Z,712.70
2023-06-11T03:13:44.079Z,704.60
2023-06-11T03:14:44.053Z,711.60
2023-06-11T03:15:44.047Z,692.50
2023-06-11T03:16:44.004Z,705.90
2023-06-11T03:17:44.002Z,677.80
2023-06-11T03:18:44.008Z,654.20
2023-06-11T03:19:43.980Z,679.20
2023-06-11T03:20:43.945Z,684.20
2023-06-11T03:21:43.951Z,698.40
2023-06-11T03:22:43.961Z,718.10
2023-06-11T03:23:43.992Z,723.00
2023-06-11T03:24:43.897Z,747.70
2023-06-11T03:25:43.916Z,795.20
2023-06-11T03:26:43.872Z,812.10
2023-06-11T03:27:43.910Z,829.90
2023-06-11T03:28:43.877Z,816.00
2023-06-11T03:29:43.853Z,800.70
2023-06-11T03:30:43.837Z,785.30
2023-06-11T03:31:43.832Z,747.50
2023-06-11T03:32:43.931Z,712.20
2023-06-11T03:33:43.804Z,681.20
2023-06-11T03:34:43.791Z,682.40
2023-06-11T03:35:43.795Z,660.70
2023-06-11T03:36:43.807Z,655.90
2023-06-11T03:37:43.794Z,648.10
2023-06-11T03:38:43.745Z,648.20
2023-06-11T03:39:43.808Z,643.70
2023-06-11T03:40:43.733Z,656.60
2023-06-11T03:41:43.793Z,642.20
2023-06-11T03:42:43.713Z,616.50
2023-06-11T03:43:43.705Z,651.50
2023-06-11T03:44:43.688Z,644.00
2023-06-11T03:45:43.684Z,675.00
2023-06-11T03:46:43.770Z,683.80
2023-06-11T03:47:43.738Z,672.20
2023-06-11T03:48:43.649Z,686.70
2023-06-11T03:49:43.631Z,666.10
2023-06-11T03:50:43.600Z,661.10
2023-06-11T03:51:43.631Z,633.50
2023-06-11T03:52:43.571Z,602.40
2023-06-11T03:53:43.554Z,600.50
2023-06-11T03:54:43.555Z,615.00
2023-06-11T03:55:43.580Z,627.60
2023-06-11T03:56:43.561Z,659.90
2023-06-11T03:57:43.503Z,684.80
2023-06-11T03:58:43.515Z,729.20
2023-06-11T03:59:43.506Z,745.00
2023-06-11T04:00:43.537Z,768.90
2023-06-11T04:01:43.481Z,767.10
2023-06-11T04:02:43.587Z,756.80
2023-06-11T04:03:43.570Z,767.70
2023-06-11T04:04:43.505Z,737.20
2023-06-11T04:05:43.461Z,716.90
2023-06-11T04:06:43.446Z,701.20
2023-06-11T04:07:43.403Z,688.90
2023-06-11T04:08:43.411Z,603.30
2023-06-11T04:09:43.443Z,461.70
2023-06-11T04:10:43.429Z,489.30
2023-06-11T04:11:43.388Z,515.30
2023-06-11T04:12:43.338Z,508.50
2023-06-11T04:13:43.358Z,495.90
2023-06-11T04:14:43.359Z,227.80
2023-06-11T04:15:43.330Z,598.50
2023-06-11T04:16:43.386Z,596.10
2023-06-11T04:17:43.416Z,541.40
2023-06-11T04:18:43.289Z,541.90
2023-06-11T04:19:43.313Z,614.80
2023-06-11T04:20:43.260Z,665.50
2023-06-11T04:21:43.258Z,704.70
2023-06-11T04:22:43.229Z,670.80
2023-06-11T04:23:43.240Z,561.70
2023-06-11T04:24:43.254Z,577.40
2023-06-11T04:25:43.224Z,512.30
2023-06-11T04:26:43.182Z,381.80
2023-06-11T04:27:43.190Z,208.50
2023-06-11T04:28:43.208Z,295.00
2023-06-11T04:29:43.193Z,453.10
2023-06-11T04:30:43.139Z,499.60
2023-06-11T04:31:43.247Z,487.00
2023-06-11T04:32:43.176Z,536.30
2023-06-11T04:33:43.157Z,517.00
2023-06-11T04:34:43.380Z,522.60
2023-06-11T04:35:43.109Z,582.40
2023-06-11T04:36:43.077Z,602.60
2023-06-11T04:37:43.060Z,571.30
2023-06-11T04:38:43.086Z,484.90
2023-06-11T04:39:43.035Z,475.20
2023-06-11T04:40:43.028Z,381.20
2023-06-11T04:41:43.029Z,294.00
2023-06-11T04:42:43.010Z,347.70
2023-06-11T04:43:43.039Z,550.00
2023-06-11T04:44:42.990Z,603.10
2023-06-11T04:45:42.997Z,237.30
2023-06-11T04:46:43.021Z,648.30
2023-06-11T04:47:43.017Z,599.40
2023-06-11T04:48:42.987Z,223.30
2023-06-11T04:49:42.947Z,241.80
2023-06-11T04:50:42.917Z,659.00
2023-06-11T04:51:42.912Z,373.80
2023-06-11T04:52:42.919Z,300.70
2023-06-11T04:53:42.888Z,235.80
2023-06-11T04:54:42.895Z,292.10
2023-06-11T04:55:42.873Z,207.90
2023-06-11T04:56:42.844Z,241.70
2023-06-11T04:57:42.878Z,245.50
2023-06-11T04:58:42.821Z,211.90
2023-06-11T04:59:42.820Z,154.00
2023-06-11T05:00:42.802Z,175.40
2023-06-11T05:01:42.868Z,121.70
2023-06-11T05:02:42.825Z,122.90
2023-06-11T05:03:42.771Z,185.60
2023-06-11T05:04:42.760Z,169.50
2023-06-11T05:05:42.837Z,269.30
2023-06-11T05:06:42.772Z,59.90
2023-06-11T05:07:42.745Z,75.90
2023-06-11T05:08:42.691Z,354.90
2023-06-11T05:09:44.473Z,82.70
2023-06-11T05:10:42.699Z,117.60
2023-06-11T05:11:42.720Z,310.00
2023-06-11T05:12:42.668Z,120.70
2023-06-11T05:13:42.660Z,329.30
2023-06-11T05:14:42.667Z,98.90
2023-06-11T05:15:42.675Z,296.70
2023-06-11T05:16:42.751Z,86.60
2023-06-11T05:17:42.693Z,126.40
2023-06-11T05:18:42.638Z,171.70
2023-06-11T05:19:42.603Z,107.10
2023-06-11T05:20:42.621Z,113.00
2023-06-11T05:21:42.555Z,28.80
2023-06-11T05:22:42.553Z,125.80
2023-06-11T05:23:42.644Z,31.30
2023-06-11T05:24:42.569Z,73.00
2023-06-11T05:25:42.554Z,51.10
2023-06-11T05:26:42.514Z,40.90
2023-06-11T05:27:42.508Z,31.70
2023-06-11T05:28:42.517Z,100.70
2023-06-11T05:29:45.773Z,40.00
2023-06-11T05:30:42.494Z,57.90
2023-06-11T05:31:42.492Z,116.50
2023-06-11T05:32:42.530Z,66.50
2023-06-11T05:33:42.429Z,41.90
2023-06-11T05:34:42.468Z,80.50
2023-06-11T05:35:42.428Z,48.20
2023-06-11T05:36:42.392Z,38.30
2023-06-11T05:37:42.401Z,62.90
2023-06-11T05:38:42.373Z,61.10
2023-06-11T05:39:42.399Z,40.30
2023-06-11T05:40:42.353Z,55.20
2023-06-11T05:41:42.355Z,81.80
2023-06-11T05:42:42.341Z,68.50
2023-06-11T05:43:42.360Z,83.80
2023-06-11T05:44:42.361Z,78.50
2023-06-11T05:45:42.334Z,72.70
2023-06-11T05:46:42.467Z,65.80
2023-06-11T05:47:42.359Z,67.00
2023-06-11T05:48:42.321Z,70.40
2023-06-11T05:49:42.251Z,74.20
2023-06-11T05:50:42.202Z,72.90
2023-06-11T05:51:42.214Z,67.80
2023-06-11T05:52:42.190Z,64.20
2023-06-11T05:53:42.247Z,58.30
2023-06-11T05:54:42.197Z,57.80
2023-06-11T05:55:42.208Z,54.30
2023-06-11T05:56:42.187Z,49.50
2023-06-11T05:57:42.186Z,45.60
2023-06-11T05:58:42.159Z,45.50
2023-06-11T05:59:42.135Z,38.50
2023-06-11T06:00:42.091Z,35.60
2023-06-11T06:01:42.093Z,38.90
2023-06-11T06:02:42.154Z,36.10
2023-06-11T06:03:42.300Z,35.90
2023-06-11T06:04:42.134Z,39.50
2023-06-11T06:05:42.078Z,44.20
2023-06-11T06:06:42.115Z,41.30
2023-06-11T06:07:42.080Z,44.00
2023-06-11T06:08:44.610Z,46.20
2023-06-11T06:09:42.036Z,43.30
2023-06-11T06:10:42.009Z,41.20
2023-06-11T06:11:42.032Z,36.60
2023-06-11T06:12:42.013Z,41.40
2023-06-11T06:13:41.972Z,41.90
2023-06-11T06:14:41.962Z,43.40
2023-06-11T06:15:41.945Z,36.40
2023-06-11T06:16:42.021Z,31.80
2023-06-11T06:17:41.979Z,29.40
2023-06-11T06:18:41.930Z,27.30
2023-06-11T06:19:41.889Z,25.00
2023-06-11T06:20:41.919Z,32.60
2023-06-11T06:21:41.910Z,28.00
2023-06-11T06:22:41.869Z,31.50
2023-06-11T06:23:41.951Z,34.30
2023-06-11T06:24:41.857Z,36.30
2023-06-11T06:25:41.899Z,29.90
2023-06-11T06:26:41.938Z,30.50
2023-06-11T06:27:41.830Z,26.70
2023-06-11T06:28:41.796Z,27.10
2023-06-11T06:29:41.812Z,26.50
2023-06-11T06:30:41.804Z,25.70
2023-06-11T06:31:41.912Z,27.30
2023-06-11T06:32:41.800Z,27.30
2023-06-11T06:33:41.783Z,28.80
2023-06-11T06:34:41.730Z,30.20
2023-06-11T06:35:41.759Z,28.70
2023-06-11T06:36:41.708Z,31.10
2023-06-11T06:37:41.747Z,31.50
2023-06-11T06:38:41.737Z,31.80
2023-06-11T06:39:41.761Z,33.50
2023-06-11T06:40:41.713Z,33.90
2023-06-11T06:41:41.664Z,33.60
2023-06-11T06:42:41.677Z,34.50
2023-06-11T06:43:41.636Z,33.50
2023-06-11T06:44:41.682Z,32.00
2023-06-11T06:45:41.621Z,32.70
2023-06-11T06:46:41.628Z,32.60
2023-06-11T06:47:41.737Z,30.00
2023-06-11T06:48:41.751Z,31.00
2023-06-11T06:49:41.611Z,29.40
2023-06-11T06:50:41.610Z,29.90
2023-06-11T06:51:41.557Z,31.00
2023-06-11T06:52:41.541Z,25.20
2023-06-11T06:53:41.574Z,25.80
2023-06-11T06:54:41.569Z,26.80
2023-06-11T06:55:41.529Z,26.00
2023-06-11T06:56:41.515Z,25.90
2023-06-11T06:57:41.509Z,21.60
2023-06-11T06:58:41.511Z,21.30
2023-06-11T06:59:41.479Z,20.80
2023-06-11T07:00:41.458Z,20.90
2023-06-11T07:01:41.485Z,20.60
2023-06-11T07:02:41.461Z,19.70
2023-06-11T07:03:41.485Z,19.60
2023-06-11T07:04:41.452Z,19.40
2023-06-11T07:05:41.427Z,19.40
2023-06-11T07:06:41.397Z,18.30
2023-06-11T07:07:43.566Z,19.70
2023-06-11T07:08:41.401Z,19.00
2023-06-11T07:09:41.372Z,18.50
2023-06-11T07:10:41.355Z,19.90
2023-06-11T07:11:41.359Z,19.60
2023-06-11T07:12:41.399Z,20.10
2023-06-11T07:13:41.328Z,21.50
2023-06-11T07:14:41.288Z,23.50
2023-06-11T07:15:41.326Z,21.80
2023-06-11T07:16:41.348Z,20.80
2023-06-11T07:17:41.352Z,26.40
2023-06-11T07:18:41.269Z,27.60
2023-06-11T07:19:41.290Z,28.30
2023-06-11T07:20:41.274Z,29.00
2023-06-11T07:21:41.289Z,26.20
2023-06-11T07:22:41.239Z,25.50
2023-06-11T07:23:41.265Z,25.30
2023-06-11T07:24:41.228Z,29.80
2023-06-11T07:25:41.186Z,32.00
2023-06-11T07:26:41.223Z,26.90
2023-06-11T07:27:41.167Z,26.40
2023-06-11T07:28:41.153Z,27.60
2023-06-11T07:29:41.158Z,28.50
2023-06-11T07:30:41.133Z,28.50
2023-06-11T07:31:41.217Z,28.40
2023-06-11T07:32:41.148Z,29.30
2023-06-11T07:33:41.095Z,29.20
2023-06-11T07:34:41.106Z,29.10
2023-06-11T07:35:41.055Z,31.10
2023-06-11T07:36:41.077Z,30.30
2023-06-11T07:37:41.014Z,29.90
2023-06-11T07:38:41.053Z,30.90
2023-06-11T07:39:41.013Z,31.30
2023-06-11T07:40:41.046Z,32.00
2023-06-11T07:41:41.063Z,31.00
2023-06-11T07:42:40.994Z,32.70
2023-06-11T07:43:40.966Z,33.30
2023-06-11T07:44:40.967Z,29.90
2023-06-11T07:45:40.977Z,27.90
2023-06-11T07:46:41.034Z,29.60
2023-06-11T07:47:40.945Z,29.70
2023-06-11T07:48:40.911Z,27.30
2023-06-11T07:49:40.881Z,28.20
2023-06-11T07:50:40.942Z,32.30
2023-06-11T07:51:40.889Z,32.10
2023-06-11T07:52:40.879Z,35.30
2023-06-11T07:53:40.856Z,37.50
2023-06-11T07:54:40.889Z,34.10
2023-06-11T07:55:40.870Z,37.10
2023-06-11T07:56:40.880Z,34.70
2023-06-11T07:57:40.805Z,35.60
2023-06-11T07:58:40.823Z,35.90
2023-06-11T07:59:40.828Z,34.40
2023-06-11T08:00:40.798Z,35.00
2023-06-11T08:01:40.803Z,36.90
2023-06-11T08:02:40.854Z,32.50
2023-06-11T08:03:40.796Z,34.20
2023-06-11T08:04:40.778Z,34.60
2023-06-11T08:05:40.773Z,31.50
2023-06-11T08:06:40.726Z,36.70
2023-06-11T08:07:40.717Z,36.30
2023-06-11T08:08:40.797Z,36.50
2023-06-11T08:09:40.672Z,37.40
2023-06-11T08:10:40.706Z,40.30
2023-06-11T08:11:40.650Z,42.40
2023-06-11T08:12:40.728Z,40.50
2023-06-11T08:13:40.679Z,40.70
2023-06-11T08:14:40.648Z,35.10
2023-06-11T08:15:40.607Z,28.50
2023-06-11T08:16:40.634Z,28.70
2023-06-11T08:17:40.696Z,27.80
2023-06-11T08:18:40.627Z,30.20
2023-06-11T08:19:40.582Z,36.80
2023-06-11T08:20:40.629Z,38.50
2023-06-11T08:21:40.546Z,39.30
2023-06-11T08:22:40.607Z,41.60
2023-06-11T08:23:40.629Z,41.50
2023-06-11T08:24:40.528Z,37.40
2023-06-11T08:25:40.516Z,38.10
2023-06-11T08:26:40.543Z,39.70
2023-06-11T08:27:40.536Z,40.70
2023-06-11T08:28:40.470Z,34.40
2023-06-11T08:29:40.542Z,31.90
2023-06-11T08:30:40.452Z,32.80
2023-06-11T08:31:40.530Z,33.40
2023-06-11T08:32:40.484Z,32.10
2023-06-11T08:33:40.466Z,26.70
2023-06-11T08:34:40.440Z,27.00
2023-06-11T08:35:40.405Z,27.00
2023-06-11T08:36:40.467Z,26.30
2023-06-11T08:37:40.384Z,25.80
2023-06-11T08:38:40.394Z,25.50
2023-06-11T08:39:40.359Z,24.50
2023-06-11T08:40:40.417Z,23.90
2023-06-11T08:41:40.369Z,23.40
2023-06-11T08:42:40.342Z,24.40
2023-06-11T08:43:40.355Z,24.10
2023-06-11T08:44:40.326Z,24.30
2023-06-11T08:45:40.359Z,24.10
2023-06-11T08:46:40.389Z,25.00
2023-06-11T08:47:40.332Z,25.60
2023-06-11T08:48:40.274Z,26.40
2023-06-11T08:49:40.276Z,26.60
2023-06-11T08:50:40.319Z,26.10
2023-06-11T08:51:40.258Z,27.40
2023-06-11T08:52:40.268Z,27.50
2023-06-11T08:53:40.248Z,27.00
2023-06-11T08:54:40.205Z,27.30
2023-06-11T08:55:40.202Z,26.70
2023-06-11T08:56:40.173Z,26.00
2023-06-11T08:57:40.176Z,27.00
2023-06-11T08:58:40.154Z,26.00
2023-06-11T08:59:40.191Z,26.50
2023-06-11T09:00:40.191Z,27.60
2023-06-11T09:01:40.201Z,28.40
2023-06-11T09:02:40.172Z,27.10
2023-06-11T09:03:40.171Z,26.00
2023-06-11T09:04:40.163Z,25.20
2023-06-11T09:05:40.113Z,26.60
2023-06-11T09:06:40.086Z,26.60
2023-06-11T09:07:40.046Z,27.00
2023-06-11T09:08:40.075Z,26.00
2023-06-11T09:09:40.085Z,26.30
2023-06-11T09:10:40.039Z,26.50
2023-06-11T09:11:40.049Z,26.20
2023-06-11T09:12:40.050Z,26.90
2023-06-11T09:13:40.049Z,27.00
2023-06-11T09:14:40.045Z,26.50
2023-06-11T09:15:39.955Z,27.10
2023-06-11T09:16:40.017Z,27.90
2023-06-11T09:17:39.995Z,28.40
2023-06-11T09:18:39.996Z,27.90
2023-06-11T09:19:39.933Z,27.30
2023-06-11T09:20:39.957Z,27.80
2023-06-11T09:21:39.909Z,28.40
2023-06-11T09:22:39.927Z,27.50
2023-06-11T09:23:40.011Z,27.60
2023-06-11T09:24:39.914Z,27.40
2023-06-11T09:25:39.889Z,28.10
2023-06-11T09:26:39.931Z,27.70
2023-06-11T09:27:39.931Z,27.40
2023-06-11T09:28:39.940Z,27.20
2023-06-11T09:29:39.849Z,28.10
2023-06-11T09:30:39.837Z,27.50
2023-06-11T09:31:39.860Z,26.20
2023-06-11T09:32:39.918Z,26.60
2023-06-11T09:33:39.992Z,27.20
2023-06-11T09:34:39.827Z,26.90
2023-06-11T09:35:39.759Z,28.30
2023-06-11T09:36:39.781Z,28.90
2023-06-11T09:37:39.809Z,27.50
2023-06-11T09:38:39.745Z,28.20
2023-06-11T09:39:39.753Z,28.60
2023-06-11T09:40:39.755Z,29.40
2023-06-11T09:41:39.717Z,28.80
2023-06-11T09:42:39.765Z,27.20
2023-06-11T09:43:39.698Z,26.60
2023-06-11T09:44:39.676Z,27.50
2023-06-11T09:45:39.767Z,28.10
2023-06-11T09:46:39.681Z,27.90
2023-06-11T09:47:39.679Z,29.10
2023-06-11T09:48:39.646Z,28.60
2023-06-11T09:49:39.648Z,29.30
2023-06-11T09:50:39.619Z,28.50
2023-06-11T09:51:39.680Z,26.60
2023-06-11T09:52:39.606Z,23.60
2023-06-11T09:53:39.636Z,23.60
2023-06-11T09:54:39.571Z,23.20
2023-06-11T09:55:39.578Z,22.30
2023-06-11T09:56:39.600Z,26.60
2023-06-11T09:57:39.522Z,27.90
2023-06-11T09:58:39.566Z,22.40
2023-06-11T09:59:39.533Z,19.90
2023-06-11T10:00:39.530Z,21.50
2023-06-11T10:01:39.645Z,21.50
2023-06-11T10:02:39.578Z,20.00
2023-06-11T10:03:39.514Z,19.70
2023-06-11T10:04:39.466Z,21.60
2023-06-11T10:05:39.520Z,24.40
2023-06-11T10:06:39.503Z,24.40
2023-06-11T10:07:39.455Z,27.80
2023-06-11T10:08:39.444Z,28.00
2023-06-11T10:09:39.438Z,24.60
2023-06-11T10:10:39.435Z,24.40
2023-06-11T10:11:39.410Z,40.40
2023-06-11T10:12:39.407Z,30.70
2023-06-11T10:13:39.379Z,27.10
2023-06-11T10:14:39.389Z,29.00
2023-06-11T10:15:39.411Z,25.50
2023-06-11T10:16:39.480Z,22.80
2023-06-11T10:17:40.886Z,32.60
2023-06-11T10:18:39.345Z,32.10
2023-06-11T10:19:39.361Z,30.20
2023-06-11T10:20:39.368Z,25.00
2023-06-11T10:21:39.325Z,25.20
2023-06-11T10:22:39.274Z,32.80
2023-06-11T10:23:39.329Z,27.10
2023-06-11T10:24:39.316Z,25.80
2023-06-11T10:25:39.305Z,22.00
2023-06-11T10:26:39.299Z,22.60
2023-06-11T10:27:39.253Z,25.30
2023-06-11T10:28:39.210Z,25.50
2023-06-11T10:29:39.245Z,24.10
2023-06-11T10:30:39.240Z,25.10
2023-06-11T10:31:39.210Z,24.50
2023-06-11T10:32:39.181Z,24.50
2023-06-11T10:33:39.268Z,22.30
2023-06-11T10:34:39.419Z,19.40
2023-06-11T10:35:39.198Z,19.10
2023-06-11T10:36:39.145Z,22.00
2023-06-11T10:37:39.139Z,22.70
2023-06-11T10:38:39.175Z,22.00
2023-06-11T10:39:39.131Z,22.00
2023-06-11T10:40:39.132Z,20.20
2023-06-11T10:41:39.114Z,21.20
2023-06-11T10:42:39.134Z,25.70
2023-06-11T10:43:39.121Z,23.70
2023-06-11T10:44:39.072Z,23.50
2023-06-11T10:45:39.043Z,23.00
2023-06-11T10:46:39.158Z,25.00
2023-06-11T10:47:39.065Z,25.10
2023-06-11T10:48:39.096Z,25.60
2023-06-11T10:49:39.026Z,20.10
2023-06-11T10:50:39.019Z,20.70
2023-06-11T10:51:40.574Z,21.10
2023-06-11T10:52:39.005Z,22.70
2023-06-11T10:53:39.019Z,24.40
2023-06-11T10:54:38.962Z,26.10
2023-06-11T10:55:38.929Z,25.60
2023-06-11T10:56:38.937Z,26.00
2023-06-11T10:57:38.973Z,27.30
2023-06-11T10:58:38.924Z,29.70
2023-06-11T10:59:38.914Z,31.50
2023-06-11T11:00:38.923Z,30.40
2023-06-11T11:01:39.018Z,33.90
2023-06-11T11:02:38.938Z,34.20
2023-06-11T11:03:39.013Z,35.60
2023-06-11T11:04:38.871Z,35.20
2023-06-11T11:05:38.843Z,34.10
2023-06-11T11:06:38.871Z,35.20
2023-06-11T11:07:38.810Z,36.00
2023-06-11T11:08:38.864Z,37.00
2023-06-11T11:09:38.810Z,37.20
2023-06-11T11:10:38.862Z,38.40
2023-06-11T11:11:38.830Z,36.90
2023-06-11T11:12:38.785Z,36.30
2023-06-11T11:13:38.741Z,36.90
2023-06-11T11:14:38.766Z,37.80
2023-06-11T11:15:38.791Z,37.60
2023-06-11T11:16:41.264Z,39.10
2023-06-11T11:17:38.840Z,39.10
2023-06-11T11:18:38.743Z,40.60
2023-06-11T11:19:38.695Z,41.00
2023-06-11T11:20:38.764Z,42.20
2023-06-11T11:21:41.035Z,41.10
2023-06-11T11:22:38.687Z,41.50
2023-06-11T11:23:38.700Z,40.40
2023-06-11T11:24:40.721Z,38.00
2023-06-11T11:25:38.674Z,37.30
2023-06-11T11:26:38.643Z,30.30
2023-06-11T11:27:38.620Z,30.00
2023-06-11T11:28:38.625Z,29.00
2023-06-11T11:29:38.672Z,24.80
2023-06-11T11:30:38.606Z,28.70
2023-06-11T11:31:38.625Z,29.90
2023-06-11T11:32:38.623Z,27.90
2023-06-11T11:33:38.573Z,23.70
2023-06-11T11:34:38.598Z,27.20
2023-06-11T11:35:38.572Z,22.50
2023-06-11T11:36:38.578Z,24.80
2023-06-11T11:37:38.514Z,27.20
2023-06-11T11:38:38.558Z,29.80
2023-06-11T11:39:38.559Z,29.70
2023-06-11T11:40:38.501Z,30.90
2023-06-11T11:41:38.493Z,31.00
2023-06-11T11:42:38.475Z,30.70
2023-06-11T11:43:39.277Z,30.10
2023-06-11T11:44:38.544Z,30.60
2023-06-11T11:45:38.440Z,30.40
2023-06-11T11:46:38.459Z,32.10
2023-06-11T11:47:38.464Z,32.60
2023-06-11T11:48:38.458Z,33.60
2023-06-11T11:49:38.445Z,36.20
2023-06-11T11:50:38.389Z,36.20
2023-06-11T11:51:38.416Z,39.20
2023-06-11T11:52:38.433Z,40.30
2023-06-11T11:53:38.402Z,39.10
2023-06-11T11:54:38.353Z,32.20
2023-06-11T11:55:51.765Z,30.30
2023-06-11T11:56:39.342Z,31.70
2023-06-11T11:57:38.383Z,33.00
2023-06-11T11:58:38.369Z,34.70
2023-06-11T11:59:38.315Z,35.10
2023-06-11T12:00:38.333Z,36.20
2023-06-11T12:01:38.346Z,37.80
2023-06-11T12:02:38.381Z,38.40
2023-06-11T12:03:38.797Z,38.50
2023-06-11T12:04:38.282Z,41.10
2023-06-11T12:05:38.299Z,41.80
2023-06-11T12:06:38.250Z,40.60
2023-06-11T12:07:38.263Z,41.50
2023-06-11T12:08:38.244Z,40.70
2023-06-11T12:09:38.240Z,39.30
2023-06-11T12:10:38.203Z,40.10
2023-06-11T12:11:45.753Z,42.80
2023-06-11T12:12:39.219Z,43.50
2023-06-11T12:13:38.522Z,41.50
2023-06-11T12:14:38.163Z,40.40
2023-06-11T12:15:38.148Z,40.20
2023-06-11T12:16:38.205Z,37.60
2023-06-11T12:17:38.179Z,38.20
2023-06-11T12:18:38.100Z,36.80
2023-06-11T12:19:38.127Z,38.00
2023-06-11T12:20:38.109Z,39.80
2023-06-11T12:21:38.139Z,44.50
2023-06-11T12:22:38.415Z,40.70
2023-06-11T12:23:38.112Z,39.90
2023-06-11T12:24:38.193Z,39.90
2023-06-11T12:25:38.094Z,40.70
2023-06-11T12:26:38.089Z,41.90
2023-06-11T12:27:38.059Z,40.50
2023-06-11T12:28:38.090Z,42.00
2023-06-11T12:29:38.062Z,43.20
2023-06-11T12:30:38.036Z,41.50
2023-06-11T12:31:38.106Z,39.10
2023-06-11T12:32:37.991Z,36.60
2023-06-11T12:33:37.976Z,34.00
2023-06-11T12:34:37.973Z,34.40
2023-06-11T12:35:38.013Z,34.30
2023-06-11T12:36:40.248Z,32.40
2023-06-11T12:37:37.926Z,30.80
2023-06-11T12:38:40.322Z,30.40
2023-06-11T12:39:37.893Z,30.70
2023-06-11T12:40:37.939Z,31.50
2023-06-11T12:41:37.878Z,30.70
2023-06-11T12:42:37.885Z,30.10